Time,TemperatureF,DewpointF,PressureIn,WindDirection,WindDirectionDegrees,WindSpeedMPH,WindSpeedGustMPH,Humidity,HourlyPrecipIn,Conditions,Clouds,dailyrainin,SolarRadiationWatts/m^2,SoftwareType,DateUTC
2013-11-28 00:11:00,43.0,22.0,-100.00,NNE,18,11.0,20.0,42,0.00,,,0.00,0.000000,,2013-11-28 07:11:00,
2013-11-28 00:21:00,43.0,22.0,-100.00,NNE,18,11.0,20.0,42,0.00,,,0.00,0.000000,,2013-11-28 07:21:00,
2013-11-28 00:32:00,43.0,22.0,-100.00,NNE,18,11.0,20.0,42,0.00,,,0.00,0.000000,,2013-11-28 07:32:00,
2013-11-28 00:41:00,43.0,22.0,-100.00,NNE,18,11.0,20.0,42,0.00,,,0.00,0.000000,,2013-11-28 07:41:00,
2013-11-28 01:21:00,42.0,19.0,-100.00,NNE,22,6.0,14.0,39,0.00,,,0.00,0.000000,,2013-11-28 08:21:00,
2013-11-28 01:32:00,42.0,19.0,-100.00,NNE,22,6.0,14.0,39,0.00,,,0.00,0.000000,,2013-11-28 08:32:00,
2013-11-28 01:42:00,42.0,19.0,-100.00,NNE,22,6.0,14.0,39,0.00,,,0.00,0.000000,,2013-11-28 08:42:00,
2013-11-28 02:21:00,41.0,18.0,-100.00,NNE,26,6.0,10.0,39,0.00,,,0.00,0.000000,,2013-11-28 09:21:00,
2013-11-28 02:32:00,41.0,18.0,-100.00,NNE,26,6.0,10.0,39,0.00,,,0.00,0.000000,,2013-11-28 09:32:00,
2013-11-28 02:43:00,41.0,18.0,-100.00,NNE,26,6.0,10.0,39,0.00,,,0.00,0.000000,,2013-11-28 09:43:00,
2013-11-28 03:23:00,40.0,20.0,-100.00,NE,41,10.0,13.0,44,0.00,,,0.00,0.000000,,2013-11-28 10:23:00,
2013-11-28 03:33:00,40.0,20.0,-100.00,NE,41,10.0,13.0,44,0.00,,,0.00,0.000000,,2013-11-28 10:33:00,
2013-11-28 03:43:00,40.0,20.0,-100.00,NE,41,10.0,13.0,44,0.00,,,0.00,0.000000,,2013-11-28 10:43:00,
2013-11-28 04:11:00,40.0,20.0,-100.00,NNE,24,10.0,15.0,45,0.00,,,0.00,0.000000,,2013-11-28 11:11:00,
2013-11-28 04:22:00,40.0,20.0,-100.00,NNE,24,10.0,15.0,45,0.00,,,0.00,0.000000,,2013-11-28 11:22:00,
2013-11-28 04:33:00,40.0,20.0,-100.00,NNE,24,10.0,15.0,45,0.00,,,0.00,0.000000,,2013-11-28 11:33:00,
2013-11-28 04:42:00,40.0,20.0,-100.00,NNE,24,10.0,15.0,45,0.00,,,0.00,0.000000,,2013-11-28 11:42:00,
2013-11-28 05:21:00,41.0,19.0,-100.00,NE,49,10.0,13.0,41,0.00,,,0.00,0.000000,,2013-11-28 12:21:00,
2013-11-28 05:32:00,41.0,19.0,-100.00,NE,49,10.0,13.0,41,0.00,,,0.00,0.000000,,2013-11-28 12:32:00,
2013-11-28 05:42:00,41.0,19.0,-100.00,NE,49,10.0,13.0,41,0.00,,,0.00,0.000000,,2013-11-28 12:42:00,
2013-11-28 06:21:00,41.0,20.0,-100.00,NNE,23,12.0,19.0,42,0.00,,,0.00,0.000000,,2013-11-28 13:21:00,
2013-11-28 06:32:00,41.0,20.0,-100.00,NNE,23,12.0,19.0,42,0.00,,,0.00,0.000000,,2013-11-28 13:32:00,
2013-11-28 06:42:00,41.0,20.0,-100.00,NNE,23,12.0,19.0,42,0.00,,,0.00,0.000000,,2013-11-28 13:42:00,
2013-11-28 07:22:00,41.0,19.0,-100.00,NE,37,8.0,16.0,41,0.00,,,0.00,0.000000,,2013-11-28 14:22:00,
2013-11-28 07:32:00,41.0,19.0,-100.00,NE,37,8.0,16.0,41,0.00,,,0.00,0.000000,,2013-11-28 14:32:00,
2013-11-28 07:42:00,41.0,19.0,-100.00,NE,37,8.0,16.0,41,0.00,,,0.00,0.000000,,2013-11-28 14:42:00,
2013-11-28 08:12:00,42.0,19.0,-100.00,NE,41,5.0,12.0,39,0.00,,,0.00,7.000000,,2013-11-28 15:12:00,
2013-11-28 08:21:00,42.0,19.0,-100.00,NE,41,5.0,12.0,39,0.00,,,0.00,7.000000,,2013-11-28 15:21:00,
2013-11-28 08:33:00,42.0,19.0,-100.00,NE,41,5.0,12.0,39,0.00,,,0.00,7.000000,,2013-11-28 15:33:00,
2013-11-28 08:43:00,42.0,19.0,-100.00,NE,41,5.0,12.0,39,0.00,,,0.00,7.000000,,2013-11-28 15:43:00,
2013-11-28 09:23:00,49.0,20.0,-100.00,ENE,75,5.0,12.0,32,0.00,,,-99.99,162.000000,,2013-11-28 16:23:00,
2013-11-28 09:33:00,49.0,20.0,-100.00,ENE,75,5.0,12.0,32,0.00,,,-99.99,162.000000,,2013-11-28 16:33:00,
2013-11-28 09:43:00,49.0,20.0,-100.00,ENE,75,5.0,12.0,32,0.00,,,-99.99,162.000000,,2013-11-28 16:43:00,
2013-11-28 10:23:00,52.0,21.0,-100.00,ENE,71,5.0,12.0,29,0.00,,,-99.99,408.000000,,2013-11-28 17:23:00,
2013-11-28 10:33:00,52.0,21.0,-100.00,ENE,71,5.0,12.0,29,0.00,,,-99.99,408.000000,,2013-11-28 17:33:00,
2013-11-28 10:42:00,52.0,21.0,-100.00,ENE,71,5.0,12.0,29,0.00,,,-99.99,408.000000,,2013-11-28 17:42:00,
2013-11-28 11:21:00,56.0,23.0,-100.00,SE,141,5.0,12.0,27,0.00,,,0.00,574.000000,,2013-11-28 18:21:00,
2013-11-28 11:32:00,56.0,23.0,-100.00,SE,141,5.0,12.0,27,0.00,,,0.00,574.000000,,2013-11-28 18:32:00,
2013-11-28 11:42:00,56.0,23.0,-100.00,SE,141,5.0,12.0,27,0.00,,,0.00,574.000000,,2013-11-28 18:42:00,
2013-11-28 12:22:00,56.0,22.0,-100.00,SSE,149,5.0,14.0,26,0.00,,,0.00,678.000000,,2013-11-28 19:22:00,
2013-11-28 12:32:00,56.0,22.0,-100.00,SSE,149,5.0,14.0,26,0.00,,,0.00,678.000000,,2013-11-28 19:32:00,
2013-11-28 12:42:00,56.0,22.0,-100.00,SSE,149,5.0,14.0,26,0.00,,,0.00,678.000000,,2013-11-28 19:42:00,
2013-11-28 13:21:00,57.0,23.0,-100.00,East,88,6.0,14.0,27,0.00,,,-99.99,712.000000,,2013-11-28 20:21:00,
2013-11-28 13:32:00,57.0,23.0,-100.00,East,88,6.0,14.0,27,0.00,,,-99.99,712.000000,,2013-11-28 20:32:00,
2013-11-28 13:42:00,57.0,23.0,-100.00,East,88,6.0,14.0,27,0.00,,,-99.99,712.000000,,2013-11-28 20:42:00,
2013-11-28 14:21:00,57.0,25.0,-100.00,ENE,74,7.0,13.0,29,0.00,,,0.00,671.000000,,2013-11-28 21:21:00,
2013-11-28 14:32:00,57.0,25.0,-100.00,ENE,74,7.0,13.0,29,0.00,,,0.00,671.000000,,2013-11-28 21:32:00,
2013-11-28 14:43:00,57.0,25.0,-100.00,ENE,74,7.0,13.0,29,0.00,,,0.00,671.000000,,2013-11-28 21:43:00,
2013-11-28 15:23:00,58.0,26.0,-100.00,SSW,198,7.0,14.0,29,0.00,,,0.00,561.000000,,2013-11-28 22:23:00,
2013-11-28 15:33:00,58.0,26.0,-100.00,SSW,198,7.0,14.0,29,0.00,,,0.00,561.000000,,2013-11-28 22:33:00,
2013-11-28 15:42:00,58.0,26.0,-100.00,SSW,198,7.0,14.0,29,0.00,,,0.00,561.000000,,2013-11-28 22:42:00,
2013-11-28 16:21:00,56.0,26.0,-100.00,SSW,206,7.0,14.0,31,0.00,,,0.00,392.000000,,2013-11-28 23:21:00,
2013-11-28 16:33:00,56.0,26.0,-100.00,SSW,206,7.0,14.0,31,0.00,,,0.00,392.000000,,2013-11-28 23:33:00,
2013-11-28 16:42:00,56.0,26.0,-100.00,SSW,206,7.0,14.0,31,0.00,,,0.00,392.000000,,2013-11-28 23:42:00,
2013-11-28 17:11:00,55.0,26.0,-100.00,South,186,3.0,14.0,33,0.00,,,0.00,190.000000,,2013-11-29 00:11:00,
2013-11-28 17:21:00,55.0,26.0,-100.00,South,186,3.0,14.0,33,0.00,,,0.00,190.000000,,2013-11-29 00:21:00,
2013-11-28 17:32:00,55.0,26.0,-100.00,South,186,3.0,14.0,33,0.00,,,0.00,190.000000,,2013-11-29 00:32:00,
2013-11-28 17:42:00,55.0,26.0,-100.00,South,186,3.0,14.0,33,0.00,,,0.00,190.000000,,2013-11-29 00:42:00,
2013-11-28 18:21:00,47.0,25.0,-100.00,NE,55,5.0,6.0,42,0.00,,,0.00,18.000000,,2013-11-29 01:21:00,
2013-11-28 18:32:00,47.0,25.0,-100.00,NE,55,5.0,6.0,42,0.00,,,0.00,18.000000,,2013-11-29 01:32:00,
2013-11-28 18:42:00,47.0,25.0,-100.00,NE,55,5.0,6.0,42,0.00,,,0.00,18.000000,,2013-11-29 01:42:00,
2013-11-28 19:21:00,46.0,24.0,-100.00,NE,41,5.0,7.0,42,0.00,,,0.00,0.000000,,2013-11-29 02:21:00,
2013-11-28 19:32:00,46.0,24.0,-100.00,NE,41,5.0,7.0,42,0.00,,,0.00,0.000000,,2013-11-29 02:32:00,
2013-11-28 19:42:00,46.0,24.0,-100.00,NE,41,5.0,7.0,42,0.00,,,0.00,0.000000,,2013-11-29 02:42:00,
2013-11-28 20:21:00,44.0,24.0,-100.00,NNE,20,8.0,10.0,45,0.00,,,-99.99,0.000000,,2013-11-29 03:21:00,
2013-11-28 20:33:00,44.0,24.0,-100.00,NNE,20,8.0,10.0,45,0.00,,,-99.99,0.000000,,2013-11-29 03:33:00,
2013-11-28 20:43:00,44.0,24.0,-100.00,NNE,20,8.0,10.0,45,0.00,,,-99.99,0.000000,,2013-11-29 03:43:00,
2013-11-28 21:23:00,46.0,24.0,-100.00,NNE,32,5.0,10.0,41,0.00,,,0.00,0.000000,,2013-11-29 04:23:00,
2013-11-28 21:33:00,46.0,24.0,-100.00,NNE,32,5.0,10.0,41,0.00,,,0.00,0.000000,,2013-11-29 04:33:00,
2013-11-28 21:42:00,46.0,24.0,-100.00,NNE,32,5.0,10.0,41,0.00,,,0.00,0.000000,,2013-11-29 04:42:00,
2013-11-28 22:12:00,48.0,24.0,-100.00,ENE,64,3.0,6.0,38,0.00,,,0.00,0.000000,,2013-11-29 05:12:00,
2013-11-28 22:22:00,48.0,24.0,-100.00,ENE,64,3.0,6.0,38,0.00,,,0.00,0.000000,,2013-11-29 05:22:00,
2013-11-28 22:32:00,48.0,24.0,-100.00,ENE,64,3.0,6.0,38,0.00,,,0.00,0.000000,,2013-11-29 05:32:00,
2013-11-28 22:42:00,48.0,24.0,-100.00,ENE,64,3.0,6.0,38,0.00,,,0.00,0.000000,,2013-11-29 05:42:00,
2013-11-28 23:12:00,46.0,24.0,-100.00,NNE,32,4.0,5.0,42,0.00,,,0.00,0.000000,,2013-11-29 06:12:00,
2013-11-28 23:22:00,46.0,24.0,-100.00,NNE,32,4.0,5.0,42,0.00,,,0.00,0.000000,,2013-11-29 06:22:00,
2013-11-28 23:33:00,46.0,24.0,-100.00,NNE,32,4.0,5.0,42,0.00,,,0.00,0.000000,,2013-11-29 06:33:00,
2013-11-28 23:42:00,46.0,24.0,-100.00,NNE,32,4.0,5.0,42,0.00,,,0.00,0.000000,,2013-11-29 06:42:00,